Time;durP1;ratioP1;P1;durP2;ratioP2;P2;SDS_P1;SDS_P2;PMS_P1;PMS_P2;Temp;Humidity;BMP_temperature;BMP_pressure;BME280_temperature;BME280_humidity;BME280_pressure;Samples;Min_cycle;Max_cycle;Signal;HPM_P1;HPM_P2
2021/09/23 00:00:11;;;;;;;28.70;20.80;;;;;;;;;;4990763;28;20185;-72
2021/09/23 00:05:11;;;;;;;28.17;20.00;;;;;;;;;;4988578;28;20571;-72
2021/09/23 00:07:36;;;;;;;28.63;19.60;;;;;;;;;;5003148;28;20215;-71
2021/09/23 00:10:02;;;;;;;30.23;21.57;;;;;;;;;;5007380;28;20443;-72
2021/09/23 00:12:27;;;;;;;39.67;22.67;;;;;;;;;;5001425;28;20175;-73
2021/09/23 00:14:52;;;;;;;31.20;20.10;;;;;;;;;;5012575;28;20233;-70
2021/09/23 00:17:17;;;;;;;30.93;21.33;;;;;;;;;;5016815;28;20684;-70
2021/09/23 00:19:43;;;;;;;31.17;21.60;;;;;;;;;;4993791;28;20211;-72
2021/09/23 00:22:08;;;;;;;28.90;21.10;;;;;;;;;;4995055;28;20190;-71
2021/09/23 00:24:33;;;;;;;29.60;21.20;;;;;;;;;;4990817;28;20183;-72
2021/09/23 00:26:59;;;;;;;33.07;23.20;;;;;;;;;;4997307;28;20206;-72
2021/09/23 00:29:24;;;;;;;28.13;20.83;;;;;;;;;;4991991;28;20193;-70
2021/09/23 00:31:49;;;;;;;30.77;21.27;;;;;;;;;;4989559;28;20276;-72
2021/09/23 00:34:14;;;;;;;28.27;20.90;;;;;;;;;;4991707;28;20206;-71
2021/09/23 00:36:40;;;;;;;27.77;21.63;;;;;;;;;;4996930;28;20207;-72
2021/09/23 00:39:05;;;;;;;28.13;21.83;;;;;;;;;;4992157;28;20187;-72
2021/09/23 00:41:30;;;;;;;30.33;21.57;;;;;;;;;;4995606;28;20178;-72
2021/09/23 00:43:55;;;;;;;30.17;21.57;;;;;;;;;;4991681;28;20184;-72
2021/09/23 00:46:20;;;;;;;35.07;22.27;;;;;;;;;;4995304;28;20285;-72
2021/09/23 00:48:49;;;;;;;29.53;21.07;;;;;;;;;;4990931;28;20464;-72
2021/09/23 00:51:16;;;;;;;28.03;22.47;;;;;;;;;;4993138;28;20185;-71
2021/09/23 00:53:41;;;;;;;31.23;21.87;;;;;;;;;;4990775;28;20197;-72
2021/09/23 00:56:06;;;;;;;28.40;21.90;;;;;;;;;;4994568;28;20833;-72
2021/09/23 00:58:31;;;;;;;33.07;22.10;;;;;;;;;;4989238;28;20179;-72
2021/09/23 01:00:57;;;;;;;30.50;21.57;;;;;;;;;;4992847;28;20179;-71
2021/09/23 01:03:22;;;;;;;30.17;21.10;;;;;;;;;;4992797;28;20179;-71
2021/09/23 01:05:47;;;;;;;31.37;22.97;;;;;;;;;;4990570;28;20645;-72
2021/09/23 01:08:12;;;;;;;30.13;22.37;;;;;;;;;;4988873;28;20211;-72
2021/09/23 01:10:37;;;;;;;28.07;20.00;;;;;;;;;;4994679;28;20200;-70
2021/09/23 01:13:03;;;;;;;30.30;21.10;;;;;;;;;;4996718;28;20207;-72
2021/09/23 01:15:28;;;;;;;31.80;22.27;;;;;;;;;;4994167;28;20190;-72
2021/09/23 01:17:53;;;;;;;34.30;21.93;;;;;;;;;;4989599;28;20309;-72
2021/09/23 01:20:19;;;;;;;31.73;23.43;;;;;;;;;;4992618;28;20175;-72
2021/09/23 01:22:44;;;;;;;33.60;23.23;;;;;;;;;;4993415;28;20183;-72
2021/09/23 01:25:12;;;;;;;27.67;21.13;;;;;;;;;;4997931;28;20800;-73
2021/09/23 01:27:37;;;;;;;31.67;22.53;;;;;;;;;;4993967;28;20210;-73
2021/09/23 01:30:03;;;;;;;27.80;21.87;;;;;;;;;;4989345;28;20183;-70
2021/09/23 01:32:28;;;;;;;32.27;22.83;;;;;;;;;;4991162;28;20176;-71
2021/09/23 01:34:53;;;;;;;29.80;21.70;;;;;;;;;;4991539;28;20187;-72
2021/09/23 01:37:18;;;;;;;32.47;22.27;;;;;;;;;;4992888;28;20210;-70
2021/09/23 01:39:43;;;;;;;30.57;23.03;;;;;;;;;;4991474;28;20800;-72
2021/09/23 01:42:09;;;;;;;30.17;22.17;;;;;;;;;;4994604;28;20179;-70
2021/09/23 01:44:34;;;;;;;28.10;21.17;;;;;;;;;;4990157;28;20184;-71
2021/09/23 01:46:59;;;;;;;32.43;24.33;;;;;;;;;;4990229;28;20348;-71
2021/09/23 01:49:25;;;;;;;30.07;21.83;;;;;;;;;;4992800;28;20178;-70
2021/09/23 01:51:50;;;;;;;30.37;22.33;;;;;;;;;;4997010;28;20180;-71
2021/09/23 01:54:15;;;;;;;37.00;21.23;;;;;;;;;;4992111;28;20240;-72
2021/09/23 01:56:41;;;;;;;33.77;23.73;;;;;;;;;;4992874;28;20668;-72
2021/09/23 01:59:06;;;;;;;29.70;23.23;;;;;;;;;;4989667;28;20184;-72
2021/09/23 02:01:31;;;;;;;34.60;23.67;;;;;;;;;;4991624;28;20600;-72
2021/09/23 02:03:56;;;;;;;37.17;23.80;;;;;;;;;;4989418;28;20329;-72
2021/09/23 02:06:21;;;;;;;32.33;23.90;;;;;;;;;;4956876;28;20219;-72
2021/09/23 02:08:47;;;;;;;30.93;23.73;;;;;;;;;;4988120;28;20330;-72
2021/09/23 02:11:12;;;;;;;31.07;21.73;;;;;;;;;;4995583;28;20672;-72
2021/09/23 02:13:38;;;;;;;36.93;24.63;;;;;;;;;;5002056;28;20194;-72
2021/09/23 02:16:03;;;;;;;35.73;25.10;;;;;;;;;;4974598;28;20296;-72
2021/09/23 02:18:28;;;;;;;31.20;22.97;;;;;;;;;;4978056;28;20222;-72
2021/09/23 02:20:53;;;;;;;32.27;24.80;;;;;;;;;;4993472;28;20181;-72
2021/09/23 02:23:19;;;;;;;32.03;23.03;;;;;;;;;;4989666;28;20172;-72
2021/09/23 02:25:44;;;;;;;38.03;23.67;;;;;;;;;;4994809;28;20520;-73
2021/09/23 02:28:09;;;;;;;35.87;23.50;;;;;;;;;;4990942;28;20184;-72
2021/09/23 02:30:35;;;;;;;38.37;25.70;;;;;;;;;;4973285;28;20265;-71
2021/09/23 02:33:00;;;;;;;36.37;25.47;;;;;;;;;;4989032;28;20244;-72
2021/09/23 02:35:25;;;;;;;37.63;24.73;;;;;;;;;;4993635;28;20202;-71
2021/09/23 02:37:50;;;;;;;31.67;23.37;;;;;;;;;;4988339;28;20230;-71
2021/09/23 02:40:16;;;;;;;35.33;24.63;;;;;;;;;;4974948;28;20270;-72
2021/09/23 02:42:42;;;;;;;38.97;24.73;;;;;;;;;;4994375;28;20197;-72
2021/09/23 02:45:08;;;;;;;35.70;24.73;;;;;;;;;;4989423;28;20183;-71
2021/09/23 02:47:33;;;;;;;36.37;23.63;;;;;;;;;;4990976;28;20278;-70
2021/09/23 02:49:58;;;;;;;37.87;25.37;;;;;;;;;;4989336;28;20226;-72
2021/09/23 02:52:23;;;;;;;31.37;23.87;;;;;;;;;;4991769;28;20690;-72
2021/09/23 02:54:49;;;;;;;34.97;24.57;;;;;;;;;;4991266;28;20190;-72
2021/09/23 02:57:14;;;;;;;31.63;24.30;;;;;;;;;;4994802;28;20768;-72
2021/09/23 02:59:40;;;;;;;35.30;23.43;;;;;;;;;;4993180;28;20261;-73
2021/09/23 03:02:05;;;;;;;37.20;25.43;;;;;;;;;;4994298;28;20676;-72
2021/09/23 03:04:30;;;;;;;35.10;25.73;;;;;;;;;;4994556;28;20171;-71
2021/09/23 03:06:55;;;;;;;36.20;24.73;;;;;;;;;;4994261;28;20696;-72
2021/09/23 03:09:21;;;;;;;40.30;25.90;;;;;;;;;;4996829;28;20665;-72
2021/09/23 03:11:46;;;;;;;41.90;29.47;;;;;;;;;;4979372;28;20187;-72
2021/09/23 03:14:11;;;;;;;43.07;29.60;;;;;;;;;;5001546;28;20646;-70
2021/09/23 03:16:36;;;;;;;45.10;29.57;;;;;;;;;;4991671;28;20235;-72
2021/09/23 03:19:02;;;;;;;45.43;29.37;;;;;;;;;;4979921;28;20177;-72
2021/09/23 03:21:27;;;;;;;40.73;29.00;;;;;;;;;;4994942;28;20727;-72
2021/09/23 03:23:52;;;;;;;45.37;29.77;;;;;;;;;;4991704;28;20183;-71
2021/09/23 03:26:17;;;;;;;43.97;30.23;;;;;;;;;;4998911;28;20735;-72
2021/09/23 03:28:42;;;;;;;41.77;28.90;;;;;;;;;;4994307;28;20621;-72
2021/09/23 03:31:08;;;;;;;40.63;28.63;;;;;;;;;;4997725;28;20190;-72
2021/09/23 03:33:33;;;;;;;45.07;29.33;;;;;;;;;;4993746;28;20823;-72
2021/09/23 03:35:58;;;;;;;44.10;29.20;;;;;;;;;;4993468;28;20233;-73
2021/09/23 03:38:24;;;;;;;39.70;27.80;;;;;;;;;;4990920;28;20197;-72
2021/09/23 03:40:50;;;;;;;42.63;30.27;;;;;;;;;;4979487;28;21251;-72
2021/09/23 03:43:19;;;;;;;41.53;29.53;;;;;;;;;;4995163;28;20174;-72
2021/09/23 03:45:45;;;;;;;43.00;31.80;;;;;;;;;;4976019;28;20195;-71
2021/09/23 03:48:10;;;;;;;43.27;30.30;;;;;;;;;;4993120;28;20184;-72
2021/09/23 03:50:35;;;;;;;43.73;29.33;;;;;;;;;;4994215;28;20731;-72
2021/09/23 03:53:00;;;;;;;37.87;27.30;;;;;;;;;;4999554;28;20602;-72
2021/09/23 03:55:26;;;;;;;41.73;29.77;;;;;;;;;;4994370;28;21031;-72
2021/09/23 03:57:51;;;;;;;38.97;26.67;;;;;;;;;;4992363;28;20241;-72
2021/09/23 04:00:20;;;;;;;45.60;31.60;;;;;;;;;;4997885;28;21473;-72
2021/09/23 04:02:45;;;;;;;45.40;31.57;;;;;;;;;;4993505;28;20175;-72
2021/09/23 04:05:10;;;;;;;43.00;31.50;;;;;;;;;;4993155;28;20183;-71
2021/09/23 04:07:35;;;;;;;44.50;31.87;;;;;;;;;;4995501;28;20232;-72
2021/09/23 04:10:01;;;;;;;50.07;33.30;;;;;;;;;;4992807;28;20194;-72
2021/09/23 04:12:26;;;;;;;48.70;32.13;;;;;;;;;;5004230;28;20582;-72
2021/09/23 04:14:51;;;;;;;43.17;29.63;;;;;;;;;;4995247;28;20935;-72
2021/09/23 04:17:18;;;;;;;52.47;33.10;;;;;;;;;;4991988;28;20215;-73
2021/09/23 04:19:44;;;;;;;50.50;33.23;;;;;;;;;;4991641;28;20182;-72
2021/09/23 04:22:09;;;;;;;47.10;32.80;;;;;;;;;;4993071;28;20187;-72
2021/09/23 04:24:34;;;;;;;55.73;35.70;;;;;;;;;;5006247;28;20270;-72
2021/09/23 04:27:00;;;;;;;51.77;35.67;;;;;;;;;;4993913;28;20204;-70
2021/09/23 04:29:25;;;;;;;53.83;37.00;;;;;;;;;;4992198;28;20186;-73
2021/09/23 04:31:50;;;;;;;54.77;37.13;;;;;;;;;;4991935;28;20190;-71
2021/09/23 04:34:15;;;;;;;53.37;37.43;;;;;;;;;;4975025;28;20763;-72
2021/09/23 04:36:41;;;;;;;51.77;36.83;;;;;;;;;;4990939;28;20233;-72
2021/09/23 04:39:06;;;;;;;55.23;39.27;;;;;;;;;;4978045;28;20175;-73
2021/09/23 04:41:31;;;;;;;63.30;41.37;;;;;;;;;;4997294;28;20993;-71
2021/09/23 04:43:56;;;;;;;61.37;40.73;;;;;;;;;;4992205;28;20219;-71
2021/09/23 04:46:22;;;;;;;59.87;39.70;;;;;;;;;;4991824;28;20210;-72
2021/09/23 04:48:48;;;;;;;58.47;40.07;;;;;;;;;;4990190;28;20198;-72
2021/09/23 04:51:13;;;;;;;59.30;40.67;;;;;;;;;;4992843;28;20195;-70
2021/09/23 04:53:38;;;;;;;58.60;40.63;;;;;;;;;;4974042;28;20266;-70
2021/09/23 04:56:03;;;;;;;55.93;39.73;;;;;;;;;;4990267;28;20384;-72
2021/09/23 04:58:29;;;;;;;61.00;40.73;;;;;;;;;;4990087;28;20183;-71
2021/09/23 05:00:54;;;;;;;66.03;43.10;;;;;;;;;;4995956;28;20180;-73
2021/09/23 05:03:19;;;;;;;70.20;44.60;;;;;;;;;;4989404;28;20170;-71
2021/09/23 05:05:44;;;;;;;71.30;46.27;;;;;;;;;;5000822;28;20274;-72
2021/09/23 05:08:09;;;;;;;67.00;45.43;;;;;;;;;;4999179;22;20231;-69
2021/09/23 05:10:35;;;;;;;71.50;43.10;;;;;;;;;;4975913;28;20270;-69
2021/09/23 05:13:01;;;;;;;68.17;43.47;;;;;;;;;;4970688;28;20195;-69
2021/09/23 05:15:26;;;;;;;74.10;46.87;;;;;;;;;;4970239;28;20200;-69
2021/09/23 05:17:51;;;;;;;69.30;45.50;;;;;;;;;;4977781;28;20208;-69
2021/09/23 05:20:17;;;;;;;81.57;48.83;;;;;;;;;;4969522;28;20194;-69
2021/09/23 05:22:42;;;;;;;76.00;49.90;;;;;;;;;;4974007;28;20239;-69
2021/09/23 05:25:08;;;;;;;76.80;48.87;;;;;;;;;;4970748;28;20649;-69
2021/09/23 05:27:33;;;;;;;84.10;51.13;;;;;;;;;;4968550;28;20227;-69
2021/09/23 05:30:00;;;;;;;77.50;48.33;;;;;;;;;;4971896;28;20192;-69
2021/09/23 05:32:25;;;;;;;87.27;53.50;;;;;;;;;;4955044;28;20175;-69
2021/09/23 05:34:50;;;;;;;83.40;51.33;;;;;;;;;;4973283;28;20290;-70
2021/09/23 05:37:15;;;;;;;83.57;50.93;;;;;;;;;;4968310;28;20283;-69
2021/09/23 05:39:41;;;;;;;84.30;51.70;;;;;;;;;;4953207;28;20198;-69
2021/09/23 05:42:06;;;;;;;88.17;51.97;;;;;;;;;;4977166;28;20180;-69
2021/09/23 05:44:31;;;;;;;87.67;53.27;;;;;;;;;;4973428;28;20167;-69
2021/09/23 05:46:56;;;;;;;83.60;51.27;;;;;;;;;;4971834;28;21742;-69
2021/09/23 05:49:22;;;;;;;82.60;50.23;;;;;;;;;;4969050;28;20188;-69
2021/09/23 05:51:48;;;;;;;83.50;52.67;;;;;;;;;;4972155;28;20692;-69
2021/09/23 05:54:13;;;;;;;88.97;52.07;;;;;;;;;;4951150;28;21847;-68
2021/09/23 05:56:39;;;;;;;82.97;51.50;;;;;;;;;;4975144;28;20411;-68
2021/09/23 05:59:04;;;;;;;84.88;51.58;;;;;;;;;;4953075;28;20596;-68
2021/09/23 06:01:29;;;;;;;99.47;54.43;;;;;;;;;;4972959;28;20195;-69
2021/09/23 06:03:54;;;;;;;85.57;50.33;;;;;;;;;;4968805;28;21880;-69
2021/09/23 06:06:20;;;;;;;79.37;49.93;;;;;;;;;;4974092;28;20591;-69
2021/09/23 06:08:45;;;;;;;82.57;50.83;;;;;;;;;;4968688;28;20665;-68
2021/09/23 06:11:10;;;;;;;82.73;51.77;;;;;;;;;;4970878;28;20191;-68
2021/09/23 06:13:35;;;;;;;75.57;49.13;;;;;;;;;;4973362;28;20641;-68
2021/09/23 06:16:01;;;;;;;77.05;47.95;;;;;;;;;;4957183;28;20908;-68
2021/09/23 06:18:26;;;;;;;78.73;51.37;;;;;;;;;;4967809;28;20211;-69
2021/09/23 06:20:51;;;;;;;70.82;48.00;;;;;;;;;;4975486;28;20195;-69
2021/09/23 06:23:16;;;;;;;72.55;48.05;;;;;;;;;;4966673;28;20194;-69
2021/09/23 06:25:42;;;;;;;67.22;45.78;;;;;;;;;;4980473;28;20251;-68
2021/09/23 06:28:07;;;;;;;65.30;44.35;;;;;;;;;;4955750;28;20287;-69
2021/09/23 06:30:32;;;;;;;64.35;44.40;;;;;;;;;;4970423;28;20198;-69
2021/09/23 06:32:57;;;;;;;59.03;42.17;;;;;;;;;;4975613;28;20572;-69
2021/09/23 06:35:23;;;;;;;60.63;42.97;;;;;;;;;;4973816;28;20669;-69
2021/09/23 06:37:49;;;;;;;61.95;42.67;;;;;;;;;;4955263;28;20732;-69
2021/09/23 06:40:14;;;;;;;56.15;39.75;;;;;;;;;;4959730;28;20192;-69
2021/09/23 06:42:41;;;;;;;52.70;40.20;;;;;;;;;;4976104;28;20760;-69
2021/09/23 06:45:07;;;;;;;59.83;40.67;;;;;;;;;;4955182;28;20645;-69
2021/09/23 06:47:32;;;;;;;56.92;41.00;;;;;;;;;;4969757;28;20210;-69
2021/09/23 06:49:57;;;;;;;59.55;41.63;;;;;;;;;;4968550;28;20190;-69
2021/09/23 06:52:22;;;;;;;56.92;39.05;;;;;;;;;;4972945;28;20286;-68
2021/09/23 06:54:47;;;;;;;58.92;39.90;;;;;;;;;;4970456;28;20191;-68
2021/09/23 06:57:12;;;;;;;55.75;41.78;;;;;;;;;;4980559;28;20223;-68
2021/09/23 06:59:38;;;;;;;59.15;41.38;;;;;;;;;;4969783;28;20176;-69
2021/09/23 07:02:03;;;;;;;56.92;41.10;;;;;;;;;;4971937;28;21442;-69
2021/09/23 07:04:28;;;;;;;54.80;40.38;;;;;;;;;;4968929;28;20187;-69
2021/09/23 07:06:53;;;;;;;58.67;41.85;;;;;;;;;;4971411;28;20760;-69
2021/09/23 07:09:18;;;;;;;56.88;42.38;;;;;;;;;;4950703;28;20180;-72
2021/09/23 07:11:44;;;;;;;53.50;38.67;;;;;;;;;;4973268;28;20192;-70
2021/09/23 07:14:09;;;;;;;58.50;41.35;;;;;;;;;;4969625;28;21393;-70
2021/09/23 07:16:34;;;;;;;56.95;41.47;;;;;;;;;;4965986;28;20222;-70
2021/09/23 07:19:00;;;;;;;55.22;39.45;;;;;;;;;;4957961;28;20291;-69
2021/09/23 07:21:25;;;;;;;53.75;39.08;;;;;;;;;;4967913;28;21127;-69
2021/09/23 07:23:50;;;;;;;52.50;39.22;;;;;;;;;;4968624;28;20184;-69
2021/09/23 07:26:17;;;;;;;48.47;38.53;;;;;;;;;;4973268;28;20242;-69
2021/09/23 07:28:42;;;;;;;53.33;38.90;;;;;;;;;;4964730;28;20619;-69
2021/09/23 07:31:08;;;;;;;50.15;37.88;;;;;;;;;;4956103;28;20271;-69
2021/09/23 07:33:33;;;;;;;45.40;36.58;;;;;;;;;;4952287;28;20702;-70
2021/09/23 07:35:58;;;;;;;54.20;37.90;;;;;;;;;;4968355;28;20204;-69
2021/09/23 07:38:23;;;;;;;45.47;34.72;;;;;;;;;;4955553;28;20199;-69
2021/09/23 07:40:49;;;;;;;51.22;38.25;;;;;;;;;;4963512;28;20183;-69
2021/09/23 07:43:14;;;;;;;48.28;34.47;;;;;;;;;;4961774;28;20179;-69
2021/09/23 07:45:39;;;;;;;48.22;35.58;;;;;;;;;;4972718;28;20210;-69
2021/09/23 07:48:05;;;;;;;47.58;34.83;;;;;;;;;;4972790;28;20215;-68
2021/09/23 07:50:30;;;;;;;45.40;35.40;;;;;;;;;;4979494;28;20188;-68
2021/09/23 07:52:55;;;;;;;40.55;31.88;;;;;;;;;;4981113;28;20324;-68
2021/09/23 07:55:20;;;;;;;41.53;32.20;;;;;;;;;;4977376;28;20188;-69
2021/09/23 07:57:46;;;;;;;40.90;32.72;;;;;;;;;;4976147;28;20215;-69
2021/09/23 08:00:12;;;;;;;39.17;31.15;;;;;;;;;;4976965;28;20267;-68
2021/09/23 08:02:37;;;;;;;40.65;28.30;;;;;;;;;;4958879;28;20352;-69
2021/09/23 08:05:02;;;;;;;43.50;29.10;;;;;;;;;;4971288;28;20187;-69
2021/09/23 08:07:28;;;;;;;35.60;29.20;;;;;;;;;;4972618;28;20219;-70
2021/09/23 08:09:53;;;;;;;35.47;27.15;;;;;;;;;;4971838;28;20199;-69
2021/09/23 08:12:18;;;;;;;33.03;25.70;;;;;;;;;;4974665;28;20208;-69
2021/09/23 08:14:43;;;;;;;28.27;24.15;;;;;;;;;;4971808;28;20524;-69
2021/09/23 08:17:08;;;;;;;31.00;24.15;;;;;;;;;;4973569;28;20692;-68
2021/09/23 08:19:37;;;;;;;35.42;26.55;;;;;;;;;;4961760;28;20175;-68
2021/09/23 08:22:03;;;;;;;29.15;22.92;;;;;;;;;;4976436;28;20198;-70
2021/09/23 08:24:28;;;;;;;27.67;21.77;;;;;;;;;;4973926;28;20175;-68
2021/09/23 08:26:53;;;;;;;29.95;21.48;;;;;;;;;;4971878;28;20204;-69
2021/09/23 08:29:19;;;;;;;26.00;19.30;;;;;;;;;;4971724;28;20242;-69
2021/09/23 08:31:44;;;;;;;25.70;18.98;;;;;;;;;;4971504;28;21033;-69
2021/09/23 08:34:09;;;;;;;22.60;17.48;;;;;;;;;;4974633;28;20214;-70
2021/09/23 08:36:35;;;;;;;21.15;16.08;;;;;;;;;;4957836;28;20214;-69
2021/09/23 08:39:00;;;;;;;22.00;15.23;;;;;;;;;;4972684;28;20271;-69
2021/09/23 08:41:25;;;;;;;21.45;15.73;;;;;;;;;;4978253;28;20188;-69
2021/09/23 08:43:51;;;;;;;18.50;14.07;;;;;;;;;;4954623;28;20235;-69
2021/09/23 08:46:16;;;;;;;18.65;14.23;;;;;;;;;;4971864;28;20179;-71
2021/09/23 08:48:42;;;;;;;19.50;14.52;;;;;;;;;;4970854;28;20575;-69
2021/09/23 08:51:07;;;;;;;20.05;14.68;;;;;;;;;;4972135;28;20633;-69
2021/09/23 08:53:32;;;;;;;22.20;16.00;;;;;;;;;;4970476;28;20188;-68
2021/09/23 08:55:58;;;;;;;20.85;14.65;;;;;;;;;;4972428;28;20330;-71
2021/09/23 08:58:26;;;;;;;19.50;14.93;;;;;;;;;;4970715;28;20195;-69
2021/09/23 09:01:10;;;;;;;21.02;15.18;;;;;;;;;;4975521;28;20192;-69
2021/09/23 09:03:36;;;;;;;18.95;14.27;;;;;;;;;;4969557;28;20176;-70
2021/09/23 09:06:03;;;;;;;21.33;14.63;;;;;;;;;;4973218;28;20266;-70
2021/09/23 09:08:30;;;;;;;24.55;14.50;;;;;;;;;;4971731;28;20218;-69
2021/09/23 09:10:55;;;;;;;21.23;13.23;;;;;;;;;;4975655;28;20180;-69
2021/09/23 09:13:20;;;;;;;21.77;12.63;;;;;;;;;;4975515;28;20190;-69
2021/09/23 09:15:46;;;;;;;13.50;10.07;;;;;;;;;;4971269;28;20457;-69
2021/09/23 09:18:12;;;;;;;16.23;11.18;;;;;;;;;;4970158;28;20468;-69
2021/09/23 09:20:48;;;;;;;10.70;8.10;;;;;;;;;;4976510;28;20234;-69
2021/09/23 09:23:14;;;;;;;7.95;5.05;;;;;;;;;;4971006;28;21033;-72
2021/09/23 09:25:39;;;;;;;11.27;5.63;;;;;;;;;;4974290;28;20272;-69
2021/09/23 09:28:06;;;;;;;8.53;4.23;;;;;;;;;;4975613;28;20215;-68
2021/09/23 09:30:33;;;;;;;9.10;3.70;;;;;;;;;;4971897;28;20556;-68
2021/09/23 09:32:58;;;;;;;9.02;3.65;;;;;;;;;;4971712;28;20187;-70
2021/09/23 09:35:26;;;;;;;6.03;3.60;;;;;;;;;;4972115;28;22022;-68
2021/09/23 09:37:52;;;;;;;5.70;3.75;;;;;;;;;;4957656;28;20454;-68
2021/09/23 09:40:19;;;;;;;7.60;3.95;;;;;;;;;;4973035;28;20254;-70
2021/09/23 09:42:45;;;;;;;5.93;3.28;;;;;;;;;;4971711;28;20204;-67
2021/09/23 09:45:14;;;;;;;5.40;3.15;;;;;;;;;;4972736;28;20195;-69
2021/09/23 09:47:41;;;;;;;9.32;4.18;;;;;;;;;;4970313;28;20577;-69
2021/09/23 09:50:13;;;;;;;9.25;3.97;;;;;;;;;;4971544;28;20192;-69
2021/09/23 09:52:38;;;;;;;7.85;3.03;;;;;;;;;;4973274;28;20254;-73
2021/09/23 09:55:10;;;;;;;5.90;2.80;;;;;;;;;;4975397;28;20188;-69
2021/09/23 09:57:45;;;;;;;6.57;3.20;;;;;;;;;;4954277;28;20785;-67
2021/09/23 10:00:11;;;;;;;5.32;3.10;;;;;;;;;;4972318;28;20179;-72
2021/09/23 10:02:37;;;;;;;6.95;3.08;;;;;;;;;;4972597;28;21558;-69
2021/09/23 10:05:02;;;;;;;6.18;2.90;;;;;;;;;;4971891;28;20653;-68
2021/09/23 10:07:27;;;;;;;4.85;3.20;;;;;;;;;;4974275;28;20366;-68
2021/09/23 10:09:53;;;;;;;6.18;3.33;;;;;;;;;;4987514;28;20184;-68
2021/09/23 10:12:19;;;;;;;4.82;3.08;;;;;;;;;;4991721;28;20271;-68
2021/09/23 10:14:45;;;;;;;6.88;3.30;;;;;;;;;;4992042;28;20665;-68
2021/09/23 10:17:11;;;;;;;5.47;3.33;;;;;;;;;;4981393;28;20230;-69
2021/09/23 10:19:38;;;;;;;6.50;2.83;;;;;;;;;;4971488;28;20808;-68
2021/09/23 10:22:04;;;;;;;5.13;2.50;;;;;;;;;;4958113;28;20199;-69
2021/09/23 10:24:29;;;;;;;5.22;3.53;;;;;;;;;;4971646;28;20557;-69
2021/09/23 10:26:55;;;;;;;7.15;2.83;;;;;;;;;;4977200;28;20266;-68
2021/09/23 10:29:21;;;;;;;8.18;3.05;;;;;;;;;;4955479;28;20235;-67
2021/09/23 10:31:46;;;;;;;3.70;2.60;;;;;;;;;;4974489;28;20596;-68
2021/09/23 10:34:12;;;;;;;4.30;3.07;;;;;;;;;;4975581;28;20213;-68
2021/09/23 10:36:38;;;;;;;10.82;3.30;;;;;;;;;;4974990;28;20472;-69
2021/09/23 10:39:05;;;;;;;5.15;2.53;;;;;;;;;;4969394;28;20181;-71
2021/09/23 10:41:31;;;;;;;3.95;2.63;;;;;;;;;;4975587;28;20564;-67
2021/09/23 10:43:56;;;;;;;6.03;3.03;;;;;;;;;;4970165;28;20176;-69
2021/09/23 10:46:24;;;;;;;5.75;2.67;;;;;;;;;;4980749;28;20588;-69
2021/09/23 10:48:50;;;;;;;3.92;2.30;;;;;;;;;;4966768;28;20331;-68
2021/09/23 10:51:16;;;;;;;6.68;3.08;;;;;;;;;;4972389;28;20187;-68
2021/09/23 10:53:47;;;;;;;4.57;2.30;;;;;;;;;;4969562;28;20176;-68
2021/09/23 10:56:12;;;;;;;4.15;2.53;;;;;;;;;;4975513;28;20606;-69
2021/09/23 10:58:39;;;;;;;6.57;2.60;;;;;;;;;;4969372;28;20176;-67
2021/09/23 11:01:04;;;;;;;6.25;3.15;;;;;;;;;;4964737;28;20445;-68
2021/09/23 11:03:30;;;;;;;4.63;2.67;;;;;;;;;;4967556;28;20183;-69
2021/09/23 11:05:55;;;;;;;9.68;2.83;;;;;;;;;;4974531;28;20433;-69
2021/09/23 11:08:21;;;;;;;7.27;3.10;;;;;;;;;;4996564;23;20250;-76
2021/09/23 11:10:46;;;;;;;9.68;3.17;;;;;;;;;;4993297;28;20428;-75
2021/09/23 11:13:14;;;;;;;6.25;3.05;;;;;;;;;;4977300;28;20544;-74
2021/09/23 11:15:42;;;;;;;7.78;3.25;;;;;;;;;;4995683;28;20224;-73
2021/09/23 11:18:08;;;;;;;7.03;3.17;;;;;;;;;;4992675;28;20254;-72
2021/09/23 11:20:34;;;;;;;3.50;2.45;;;;;;;;;;4992545;28;20300;-73
2021/09/23 11:23:01;;;;;;;3.28;2.42;;;;;;;;;;4999630;28;20188;-72
2021/09/23 11:25:27;;;;;;;4.47;2.55;;;;;;;;;;4998724;28;20186;-75
2021/09/23 11:27:53;;;;;;;6.40;3.35;;;;;;;;;;4979026;28;21261;-73
2021/09/23 11:30:20;;;;;;;3.25;2.17;;;;;;;;;;4995034;28;20567;-73
2021/09/23 11:32:56;;;;;;;4.50;2.50;;;;;;;;;;4999506;28;20251;-74
2021/09/23 11:35:23;;;;;;;5.35;2.30;;;;;;;;;;4994652;28;20186;-74
2021/09/23 11:37:48;;;;;;;5.15;2.53;;;;;;;;;;4993864;28;20207;-75
2021/09/23 11:40:34;;;;;;;4.15;2.33;;;;;;;;;;4983900;28;20179;-74
2021/09/23 11:43:04;;;;;;;5.15;2.20;;;;;;;;;;4994271;28;20256;-74
2021/09/23 11:45:31;;;;;;;3.90;2.08;;;;;;;;;;4980456;28;20221;-72
2021/09/23 11:48:01;;;;;;;3.83;2.20;;;;;;;;;;4994203;28;20308;-75
2021/09/23 11:50:49;;;;;;;4.93;2.25;;;;;;;;;;4993895;28;21418;-72
2021/09/23 11:53:18;;;;;;;4.43;2.10;;;;;;;;;;4996888;28;20195;-75
2021/09/23 11:55:54;;;;;;;4.13;2.20;;;;;;;;;;4998093;28;20289;-75
2021/09/23 11:58:19;;;;;;;4.70;2.00;;;;;;;;;;4992938;28;20583;-73
2021/09/23 12:00:44;;;;;;;5.57;2.73;;;;;;;;;;4998919;28;20176;-73
2021/09/23 12:03:10;;;;;;;6.07;2.67;;;;;;;;;;4992844;28;20477;-73
2021/09/23 12:05:36;;;;;;;8.52;1.85;;;;;;;;;;4998090;28;20371;-73
2021/09/23 12:08:07;;;;;;;4.95;1.63;;;;;;;;;;4993768;28;20692;-72
2021/09/23 12:10:32;;;;;;;2.30;1.52;;;;;;;;;;4996395;28;20592;-73
2021/09/23 12:12:59;;;;;;;3.45;1.60;;;;;;;;;;4993693;28;20209;-73
2021/09/23 12:15:24;;;;;;;4.95;2.00;;;;;;;;;;4996701;28;20232;-74
2021/09/23 12:17:53;;;;;;;4.95;1.65;;;;;;;;;;4998134;28;20207;-75
2021/09/23 12:20:20;;;;;;;5.45;1.88;;;;;;;;;;4992635;28;20207;-72
2021/09/23 12:22:45;;;;;;;6.00;1.73;;;;;;;;;;4992122;28;20181;-73
2021/09/23 12:25:15;;;;;;;5.43;1.60;;;;;;;;;;4998782;28;20596;-72
2021/09/23 12:27:41;;;;;;;4.13;1.58;;;;;;;;;;4997195;28;20444;-72
2021/09/23 12:30:06;;;;;;;4.95;1.67;;;;;;;;;;4993143;28;20294;-73
2021/09/23 12:32:33;;;;;;;7.18;2.40;;;;;;;;;;4993562;28;20302;-73
2021/09/23 12:34:59;;;;;;;8.32;1.80;;;;;;;;;;4993356;28;20179;-72
2021/09/23 12:37:24;;;;;;;3.88;1.80;;;;;;;;;;4994762;28;20632;-73
2021/09/23 12:39:50;;;;;;;4.97;1.83;;;;;;;;;;4997237;28;20250;-73
2021/09/23 12:42:18;;;;;;;4.15;1.40;;;;;;;;;;4978338;28;20266;-72
2021/09/23 12:44:57;;;;;;;5.10;1.95;;;;;;;;;;4994243;28;20187;-75
2021/09/23 12:47:22;;;;;;;6.47;2.38;;;;;;;;;;4993681;28;20777;-75
2021/09/23 12:49:50;;;;;;;7.00;2.72;;;;;;;;;;4992264;28;20187;-73
2021/09/23 12:52:23;;;;;;;5.25;2.08;;;;;;;;;;4993479;28;20195;-75
2021/09/23 12:54:56;;;;;;;6.25;2.10;;;;;;;;;;4993387;28;20521;-73
2021/09/23 12:57:31;;;;;;;5.55;1.75;;;;;;;;;;4998426;28;20294;-73
2021/09/23 13:00:10;;;;;;;9.52;2.70;;;;;;;;;;4996319;28;20270;-73
2021/09/23 13:02:36;;;;;;;4.82;1.73;;;;;;;;;;4995297;28;20235;-73
2021/09/23 13:05:09;;;;;;;6.45;2.13;;;;;;;;;;4977263;28;20273;-74
2021/09/23 13:07:41;;;;;;;5.55;1.98;;;;;;;;;;4991857;28;21623;-72
2021/09/23 13:10:07;;;;;;;4.47;1.92;;;;;;;;;;5001546;28;20222;-73
2021/09/23 13:12:34;;;;;;;6.95;2.20;;;;;;;;;;4992148;28;20179;-75
2021/09/23 13:14:59;;;;;;;5.00;2.10;;;;;;;;;;4997291;28;20186;-74
2021/09/23 13:17:25;;;;;;;5.55;2.25;;;;;;;;;;4995084;28;20222;-73
2021/09/23 13:19:51;;;;;;;5.38;1.70;;;;;;;;;;4992606;28;21888;-72
2021/09/23 13:22:16;;;;;;;6.70;2.60;;;;;;;;;;4989912;28;20197;-74
2021/09/23 13:24:41;;;;;;;5.93;2.83;;;;;;;;;;4980759;28;20187;-73
2021/09/23 13:27:06;;;;;;;12.10;2.50;;;;;;;;;;4992018;28;20547;-73
2021/09/23 13:29:31;;;;;;;5.30;2.47;;;;;;;;;;4991598;28;20479;-73
2021/09/23 13:31:56;;;;;;;4.70;1.90;;;;;;;;;;4996255;28;20179;-73
2021/09/23 13:34:22;;;;;;;5.80;2.27;;;;;;;;;;4980621;28;20431;-73
2021/09/23 13:36:47;;;;;;;4.07;1.85;;;;;;;;;;4991237;28;20469;-73
2021/09/23 13:39:12;;;;;;;6.00;2.23;;;;;;;;;;4991005;28;20179;-73
2021/09/23 13:41:37;;;;;;;4.13;2.05;;;;;;;;;;4995531;28;20447;-73
2021/09/23 13:44:03;;;;;;;12.65;2.75;;;;;;;;;;4992769;28;20175;-74
2021/09/23 13:46:28;;;;;;;5.75;2.10;;;;;;;;;;4990951;28;20210;-74
2021/09/23 13:48:53;;;;;;;6.40;2.38;;;;;;;;;;4994145;28;20180;-72
2021/09/23 13:51:18;;;;;;;5.50;2.30;;;;;;;;;;4994001;28;20183;-73
2021/09/23 13:53:44;;;;;;;5.80;2.00;;;;;;;;;;4997938;28;20436;-72
2021/09/23 13:56:09;;;;;;;5.68;2.58;;;;;;;;;;5010759;28;20203;-74
2021/09/23 13:58:34;;;;;;;3.55;2.22;;;;;;;;;;4999351;28;20293;-73
2021/09/23 14:00:59;;;;;;;4.18;2.22;;;;;;;;;;4996052;28;20187;-73
2021/09/23 14:03:28;;;;;;;3.42;2.00;;;;;;;;;;4992043;28;20193;-74
2021/09/23 14:05:53;;;;;;;9.77;2.10;;;;;;;;;;4998375;28;20729;-73
2021/09/23 14:08:21;;;;;;;6.88;2.17;;;;;;;;;;4997749;28;20226;-74
2021/09/23 14:10:46;;;;;;;9.90;2.00;;;;;;;;;;5000782;28;20192;-74
2021/09/23 14:13:11;;;;;;;6.43;2.40;;;;;;;;;;4995911;28;20195;-74
2021/09/23 14:15:36;;;;;;;4.97;1.83;;;;;;;;;;4993695;28;20174;-75
2021/09/23 14:18:02;;;;;;;4.72;1.50;;;;;;;;;;4992495;28;20853;-76
2021/09/23 14:20:27;;;;;;;3.88;1.65;;;;;;;;;;4993697;28;20182;-72